sensor_id;sensor_type;location;lat;lon;timestamp;pressure;altitude;pressure_sealevel;temperature;humidity
38806;BME280;25635;51.146;17.162;2022-10-16T00:01:36;100064.05;;;12.21;89.71
38806;BME280;25635;51.146;17.162;2022-10-16T00:04:02;100063.19;;;12.20;89.61
38806;BME280;25635;51.146;17.162;2022-10-16T00:06:29;100062.35;;;12.18;89.56
38806;BME280;25635;51.146;17.162;2022-10-16T00:08:57;100054.95;;;12.16;89.60
38806;BME280;25635;51.146;17.162;2022-10-16T00:11:26;100061.52;;;12.16;89.58
38806;BME280;25635;51.146;17.162;2022-10-16T00:13:57;100067.23;;;12.14;89.54
38806;BME280;25635;51.146;17.162;2022-10-16T00:16:25;100068.55;;;12.12;89.73
38806;BME280;25635;51.146;17.162;2022-10-16T00:18:53;100072.48;;;12.12;89.82
38806;BME280;25635;51.146;17.162;2022-10-16T00:21:22;100065.93;;;12.12;89.84
38806;BME280;25635;51.146;17.162;2022-10-16T00:23:55;100069.39;;;12.14;89.92
38806;BME280;25635;51.146;17.162;2022-10-16T00:26:25;100071.09;;;12.17;89.95
38806;BME280;25635;51.146;17.162;2022-10-16T00:28:52;100075.84;;;12.21;90.00
38806;BME280;25635;51.146;17.162;2022-10-16T00:31:21;100074.52;;;12.22;90.03
38806;BME280;25635;51.146;17.162;2022-10-16T00:33:48;100069.26;;;12.24;89.87
38806;BME280;25635;51.146;17.162;2022-10-16T00:36:17;100067.95;;;12.24;89.79
38806;BME280;25635;51.146;17.162;2022-10-16T00:38:46;100070.59;;;12.22;89.73
38806;BME280;25635;51.146;17.162;2022-10-16T00:41:16;100073.68;;;12.20;89.60
38806;BME280;25635;51.146;17.162;2022-10-16T00:43:52;100071.98;;;12.18;89.33
38806;BME280;25635;51.146;17.162;2022-10-16T00:46:27;100074.16;;;12.16;89.46
38806;BME280;25635;51.146;17.162;2022-10-16T00:49:13;100068.15;;;12.11;89.44
38806;BME280;25635;51.146;17.162;2022-10-16T00:51:45;100079.10;;;12.09;89.54
38806;BME280;25635;51.146;17.162;2022-10-16T00:54:30;100070.85;;;12.07;89.58
38806;BME280;25635;51.146;17.162;2022-10-16T00:57:03;100068.25;;;12.05;89.77
38806;BME280;25635;51.146;17.162;2022-10-16T00:59:34;100069.12;;;12.04;89.94
38806;BME280;25635;51.146;17.162;2022-10-16T01:02:04;100072.62;;;12.05;90.02
38806;BME280;25635;51.146;17.162;2022-10-16T01:04:35;100064.70;;;12.08;90.11
38806;BME280;25635;51.146;17.162;2022-10-16T01:13:20;100065.95;;;12.11;90.40
38806;BME280;25635;51.146;17.162;2022-10-16T01:15:59;100074.27;;;12.10;90.27
38806;BME280;25635;51.146;17.162;2022-10-16T01:21:29;100077.41;;;12.07;90.48
38806;BME280;25635;51.146;17.162;2022-10-16T01:29:45;100069.10;;;12.06;90.75
38806;BME280;25635;51.146;17.162;2022-10-16T01:32:33;100073.89;;;12.06;90.77
38806;BME280;25635;51.146;17.162;2022-10-16T01:35:02;100082.14;;;12.09;90.90
38806;BME280;25635;51.146;17.162;2022-10-16T01:37:41;100081.67;;;12.11;90.85
38806;BME280;25635;51.146;17.162;2022-10-16T01:40:18;100084.72;;;12.13;90.82
38806;BME280;25635;51.146;17.162;2022-10-16T01:42:55;100071.14;;;12.15;90.80
38806;BME280;25635;51.146;17.162;2022-10-16T01:45:22;100069.38;;;12.16;90.74
38806;BME280;25635;51.146;17.162;2022-10-16T01:47:51;100063.27;;;12.15;90.67
38806;BME280;25635;51.146;17.162;2022-10-16T01:50:19;100058.89;;;12.16;90.59
38806;BME280;25635;51.146;17.162;2022-10-16T01:52:48;100060.59;;;12.19;90.49
38806;BME280;25635;51.146;17.162;2022-10-16T01:55:20;100073.68;;;12.20;90.43
38806;BME280;25635;51.146;17.162;2022-10-16T01:57:50;100067.14;;;12.19;90.37
38806;BME280;25635;51.146;17.162;2022-10-16T02:00:19;100069.30;;;12.21;90.40
38806;BME280;25635;51.146;17.162;2022-10-16T02:02:49;100071.04;;;12.22;90.30
38806;BME280;25635;51.146;17.162;2022-10-16T02:05:31;100073.66;;;12.22;90.39
38806;BME280;25635;51.146;17.162;2022-10-16T02:07:56;100081.53;;;12.22;90.40
38806;BME280;25635;51.146;17.162;2022-10-16T02:10:23;100086.77;;;12.22;90.46
38806;BME280;25635;51.146;17.162;2022-10-16T02:12:57;100086.78;;;12.20;90.41
38806;BME280;25635;51.146;17.162;2022-10-16T02:15:25;100080.63;;;12.23;90.47
38806;BME280;25635;51.146;17.162;2022-10-16T02:17:51;100088.03;;;12.23;90.52
38806;BME280;25635;51.146;17.162;2022-10-16T02:20:20;100090.23;;;12.24;90.47
38806;BME280;25635;51.146;17.162;2022-10-16T02:22:50;100093.24;;;12.26;90.39
38806;BME280;25635;51.146;17.162;2022-10-16T02:25:32;100088.84;;;12.28;90.38
38806;BME280;25635;51.146;17.162;2022-10-16T02:28:10;100092.70;;;12.31;90.31
38806;BME280;25635;51.146;17.162;2022-10-16T02:31:03;100091.78;;;12.34;90.17
38806;BME280;25635;51.146;17.162;2022-10-16T02:33:31;100091.83;;;12.32;90.20
38806;BME280;25635;51.146;17.162;2022-10-16T02:35:59;100101.87;;;12.33;90.28
38806;BME280;25635;51.146;17.162;2022-10-16T02:38:26;100104.10;;;12.30;90.25
38806;BME280;25635;51.146;17.162;2022-10-16T02:40:53;100099.78;;;12.28;90.20
38806;BME280;25635;51.146;17.162;2022-10-16T02:43:20;100106.34;;;12.28;90.19
38806;BME280;25635;51.146;17.162;2022-10-16T02:45:46;100112.89;;;12.28;90.22
38806;BME280;25635;51.146;17.162;2022-10-16T02:48:12;100114.63;;;12.27;90.31
38806;BME280;25635;51.146;17.162;2022-10-16T02:50:38;100110.69;;;12.27;90.32
38806;BME280;25635;51.146;17.162;2022-10-16T02:53:05;100113.73;;;12.30;90.37
38806;BME280;25635;51.146;17.162;2022-10-16T02:55:31;100103.62;;;12.32;90.29
38806;BME280;25635;51.146;17.162;2022-10-16T02:57:58;100100.63;;;12.30;90.18
38806;BME280;25635;51.146;17.162;2022-10-16T03:00:24;100112.38;;;12.31;90.26
38806;BME280;25635;51.146;17.162;2022-10-16T03:02:50;100115.47;;;12.29;90.27
38806;BME280;25635;51.146;17.162;2022-10-16T03:05:16;100114.16;;;12.29;90.28
38806;BME280;25635;51.146;17.162;2022-10-16T03:07:42;100110.66;;;12.30;90.26
38806;BME280;25635;51.146;17.162;2022-10-16T03:10:08;100116.36;;;12.30;90.18
38806;BME280;25635;51.146;17.162;2022-10-16T03:12:35;100115.09;;;12.25;90.19
38806;BME280;25635;51.146;17.162;2022-10-16T03:15:01;100115.09;;;12.25;90.24
38806;BME280;25635;51.146;17.162;2022-10-16T03:17:28;100122.09;;;12.26;90.33
38806;BME280;25635;51.146;17.162;2022-10-16T03:19:54;100133.43;;;12.27;90.34
38806;BME280;25635;51.146;17.162;2022-10-16T03:22:20;100131.67;;;12.27;90.26
38806;BME280;25635;51.146;17.162;2022-10-16T03:24:47;100128.17;;;12.28;90.35
38806;BME280;25635;51.146;17.162;2022-10-16T03:27:13;100132.97;;;12.29;90.38
38806;BME280;25635;51.146;17.162;2022-10-16T03:29:39;100130.34;;;12.29;90.40
38806;BME280;25635;51.146;17.162;2022-10-16T03:32:05;100138.17;;;12.32;90.53
38806;BME280;25635;51.146;17.162;2022-10-16T03:34:31;100129.42;;;12.31;90.48
38806;BME280;25635;51.146;17.162;2022-10-16T03:36:57;100120.69;;;12.31;90.59
38806;BME280;25635;51.146;17.162;2022-10-16T03:39:24;100121.59;;;12.30;90.79
38806;BME280;25635;51.146;17.162;2022-10-16T03:41:50;100126.47;;;12.26;90.83
38806;BME280;25635;51.146;17.162;2022-10-16T03:44:16;100124.73;;;12.23;91.11
38806;BME280;25635;51.146;17.162;2022-10-16T03:46:42;100123.88;;;12.23;91.21
38806;BME280;25635;51.146;17.162;2022-10-16T03:49:08;100135.23;;;12.23;91.42
38806;BME280;25635;51.146;17.162;2022-10-16T03:51:34;100139.58;;;12.26;91.48
38806;BME280;25635;51.146;17.162;2022-10-16T03:54:01;100142.58;;;12.30;91.61
38806;BME280;25635;51.146;17.162;2022-10-16T03:56:27;100145.54;;;12.34;91.63
38806;BME280;25635;51.146;17.162;2022-10-16T03:58:53;100148.59;;;12.36;91.56
38806;BME280;25635;51.146;17.162;2022-10-16T04:01:20;100135.84;;;12.41;91.61
38806;BME280;25635;51.146;17.162;2022-10-16T04:03:46;100135.37;;;12.43;91.55
38806;BME280;25635;51.146;17.162;2022-10-16T04:06:12;100130.08;;;12.44;91.59
38806;BME280;25635;51.146;17.162;2022-10-16T04:08:38;100146.70;;;12.45;91.54
38806;BME280;25635;51.146;17.162;2022-10-16T04:11:05;100140.06;;;12.49;91.64
38806;BME280;25635;51.146;17.162;2022-10-16T04:13:31;100144.39;;;12.52;91.57
38806;BME280;25635;51.146;17.162;2022-10-16T04:15:57;100140.44;;;12.53;91.53
38806;BME280;25635;51.146;17.162;2022-10-16T04:18:23;100141.26;;;12.57;91.64
38806;BME280;25635;51.146;17.162;2022-10-16T04:20:51;100148.20;;;12.60;91.57
38806;BME280;25635;51.146;17.162;2022-10-16T04:23:18;100149.92;;;12.61;91.50
38806;BME280;25635;51.146;17.162;2022-10-16T04:25:44;100154.29;;;12.62;91.57
38806;BME280;25635;51.146;17.162;2022-10-16T04:28:10;100148.59;;;12.62;91.46
38806;BME280;25635;51.146;17.162;2022-10-16T04:30:40;100155.22;;;12.59;91.38
38806;BME280;25635;51.146;17.162;2022-10-16T04:33:08;100144.76;;;12.56;91.40
38806;BME280;25635;51.146;17.162;2022-10-16T04:35:35;100140.82;;;12.56;91.21
38806;BME280;25635;51.146;17.162;2022-10-16T04:38:02;100151.77;;;12.55;91.14
38806;BME280;25635;51.146;17.162;2022-10-16T04:40:28;100158.80;;;12.53;91.11
38806;BME280;25635;51.146;17.162;2022-10-16T04:42:57;100167.98;;;12.53;91.23
38806;BME280;25635;51.146;17.162;2022-10-16T04:45:23;100164.92;;;12.52;91.30
38806;BME280;25635;51.146;17.162;2022-10-16T04:47:49;100174.09;;;12.52;91.35
38806;BME280;25635;51.146;17.162;2022-10-16T04:50:15;100174.98;;;12.53;91.23
38806;BME280;25635;51.146;17.162;2022-10-16T04:52:41;100166.28;;;12.51;91.36
38806;BME280;25635;51.146;17.162;2022-10-16T04:55:08;100164.97;;;12.51;91.56
38806;BME280;25635;51.146;17.162;2022-10-16T04:57:34;100168.91;;;12.51;91.62
38806;BME280;25635;51.146;17.162;2022-10-16T05:00:00;100167.14;;;12.51;91.59
38806;BME280;25635;51.146;17.162;2022-10-16T05:02:26;100167.99;;;12.52;91.63
38806;BME280;25635;51.146;17.162;2022-10-16T05:04:54;100171.48;;;12.52;91.82
38806;BME280;25635;51.146;17.162;2022-10-16T05:07:26;100173.22;;;12.53;91.85
38806;BME280;25635;51.146;17.162;2022-10-16T05:09:55;100173.63;;;12.54;91.91
38806;BME280;25635;51.146;17.162;2022-10-16T05:12:21;100167.05;;;12.56;92.04
38806;BME280;25635;51.146;17.162;2022-10-16T05:14:48;100167.48;;;12.57;91.95
38806;BME280;25635;51.146;17.162;2022-10-16T05:17:14;100170.97;;;12.57;91.78
38806;BME280;25635;51.146;17.162;2022-10-16T05:19:40;100172.73;;;12.57;91.81
38806;BME280;25635;51.146;17.162;2022-10-16T05:22:07;100179.33;;;12.54;91.67
38806;BME280;25635;51.146;17.162;2022-10-16T05:24:33;100190.28;;;12.53;91.64
38806;BME280;25635;51.146;17.162;2022-10-16T05:26:59;100191.57;;;12.55;91.64
38806;BME280;25635;51.146;17.162;2022-10-16T05:29:25;100196.82;;;12.55;91.45
38806;BME280;25635;51.146;17.162;2022-10-16T05:31:52;100185.89;;;12.54;91.47
38806;BME280;25635;51.146;17.162;2022-10-16T05:34:20;100181.11;;;12.52;91.44
38806;BME280;25635;51.146;17.162;2022-10-16T05:36:47;100189.00;;;12.50;91.50
38806;BME280;25635;51.146;17.162;2022-10-16T05:39:14;100185.52;;;12.50;91.45
38806;BME280;25635;51.146;17.162;2022-10-16T05:41:42;100195.13;;;12.51;91.56
38806;BME280;25635;51.146;17.162;2022-10-16T05:44:10;100196.86;;;12.50;91.62
38806;BME280;25635;51.146;17.162;2022-10-16T05:46:37;100192.91;;;12.52;91.72
38806;BME280;25635;51.146;17.162;2022-10-16T05:49:03;100201.64;;;12.52;91.81
38806;BME280;25635;51.146;17.162;2022-10-16T05:51:30;100198.59;;;12.53;91.93
38806;BME280;25635;51.146;17.162;2022-10-16T05:53:56;100195.07;;;12.54;92.08
38806;BME280;25635;51.146;17.162;2022-10-16T05:56:22;100193.27;;;12.57;92.10
38806;BME280;25635;51.146;17.162;2022-10-16T05:58:48;100199.77;;;12.61;92.01
38806;BME280;25635;51.146;17.162;2022-10-16T06:01:17;100200.59;;;12.64;92.05
38806;BME280;25635;51.146;17.162;2022-10-16T06:03:44;100200.13;;;12.66;92.00
38806;BME280;25635;51.146;17.162;2022-10-16T06:06:12;100207.92;;;12.69;92.07
38806;BME280;25635;51.146;17.162;2022-10-16T06:08:42;100210.53;;;12.71;92.16
38806;BME280;25635;51.146;17.162;2022-10-16T06:11:12;100214.47;;;12.71;92.29
38806;BME280;25635;51.146;17.162;2022-10-16T06:13:41;100231.49;;;12.74;92.39
38806;BME280;25635;51.146;17.162;2022-10-16T06:16:10;100227.03;;;12.77;92.53
38806;BME280;25635;51.146;17.162;2022-10-16T06:18:36;100229.16;;;12.83;92.59
38806;BME280;25635;51.146;17.162;2022-10-16T06:21:27;100229.53;;;12.87;92.35
38806;BME280;25635;51.146;17.162;2022-10-16T06:23:52;100226.84;;;12.90;92.62
38806;BME280;25635;51.146;17.162;2022-10-16T06:26:21;100235.91;;;12.97;92.67
38806;BME280;25635;51.146;17.162;2022-10-16T06:28:49;100233.63;;;13.03;92.78
38806;BME280;25635;51.146;17.162;2022-10-16T06:31:16;100234.83;;;13.09;92.81
38806;BME280;25635;51.146;17.162;2022-10-16T06:33:43;100241.25;;;13.15;92.88
38806;BME280;25635;51.146;17.162;2022-10-16T06:36:14;100243.77;;;13.22;92.83
38806;BME280;25635;51.146;17.162;2022-10-16T06:38:43;100241.89;;;13.31;92.91
38806;BME280;25635;51.146;17.162;2022-10-16T06:41:15;100243.52;;;13.38;93.05
38806;BME280;25635;51.146;17.162;2022-10-16T06:43:43;100248.16;;;13.47;93.13
38806;BME280;25635;51.146;17.162;2022-10-16T06:46:12;100256.34;;;13.55;93.06
38806;BME280;25635;51.146;17.162;2022-10-16T06:48:41;100263.17;;;13.64;92.95
38806;BME280;25635;51.146;17.162;2022-10-16T06:51:15;100254.25;;;13.71;92.87
38806;BME280;25635;51.146;17.162;2022-10-16T06:53:49;100265.94;;;13.79;92.79
38806;BME280;25635;51.146;17.162;2022-10-16T06:56:22;100266.67;;;13.86;92.76
38806;BME280;25635;51.146;17.162;2022-10-16T06:58:51;100264.30;;;13.94;92.88
38806;BME280;25635;51.146;17.162;2022-10-16T07:01:20;100266.75;;;14.04;92.99
38806;BME280;25635;51.146;17.162;2022-10-16T07:03:49;100269.63;;;14.12;92.90
38806;BME280;25635;51.146;17.162;2022-10-16T07:06:17;100272.97;;;14.21;92.80
38806;BME280;25635;51.146;17.162;2022-10-16T07:08:46;100281.58;;;14.27;92.69
38806;BME280;25635;51.146;17.162;2022-10-16T07:11:15;100283.63;;;14.34;92.51
38806;BME280;25635;51.146;17.162;2022-10-16T07:13:43;100287.46;;;14.38;92.40
38806;BME280;25635;51.146;17.162;2022-10-16T07:16:13;100289.56;;;14.44;92.39
38806;BME280;25635;51.146;17.162;2022-10-16T07:18:42;100287.22;;;14.49;92.21
38806;BME280;25635;51.146;17.162;2022-10-16T07:21:13;100295.43;;;14.55;92.33
38806;BME280;25635;51.146;17.162;2022-10-16T07:23:43;100295.76;;;14.62;92.28
38806;BME280;25635;51.146;17.162;2022-10-16T07:26:10;100303.45;;;14.70;92.57
38806;BME280;25635;51.146;17.162;2022-10-16T07:28:37;100305.92;;;14.77;92.29
38806;BME280;25635;51.146;17.162;2022-10-16T07:31:08;100300.52;;;14.84;92.22
38806;BME280;25635;51.146;17.162;2022-10-16T07:33:43;100298.19;;;14.89;91.96
38806;BME280;25635;51.146;17.162;2022-10-16T07:36:17;100305.39;;;14.99;92.20
38806;BME280;25635;51.146;17.162;2022-10-16T07:38:49;100306.53;;;15.07;92.26
38806;BME280;25635;51.146;17.162;2022-10-16T07:41:21;100305.53;;;15.12;91.69
38806;BME280;25635;51.146;17.162;2022-10-16T07:43:53;100303.59;;;15.19;91.79
38806;BME280;25635;51.146;17.162;2022-10-16T07:46:25;100301.63;;;15.27;91.83
38806;BME280;25635;51.146;17.162;2022-10-16T07:48:55;100301.48;;;15.33;91.39
38806;BME280;25635;51.146;17.162;2022-10-16T07:51:23;100300.00;;;15.39;91.47
38806;BME280;25635;51.146;17.162;2022-10-16T07:53:50;100295.00;;;15.45;90.88
38806;BME280;25635;51.146;17.162;2022-10-16T07:56:18;100288.34;;;15.48;91.03
38806;BME280;25635;51.146;17.162;2022-10-16T07:58:46;100295.27;;;15.52;90.86
38806;BME280;25635;51.146;17.162;2022-10-16T08:01:14;100295.59;;;15.56;91.13
38806;BME280;25635;51.146;17.162;2022-10-16T08:03:46;100298.99;;;15.60;90.40
38806;BME280;25635;51.146;17.162;2022-10-16T08:06:14;100301.20;;;15.60;90.28
38806;BME280;25635;51.146;17.162;2022-10-16T08:08:41;100294.55;;;15.62;90.84
38806;BME280;25635;51.146;17.162;2022-10-16T08:11:07;100299.84;;;15.78;90.53
38806;BME280;25635;51.146;17.162;2022-10-16T08:13:34;100299.84;;;15.78;90.53
38806;BME280;25635;51.146;17.162;2022-10-16T08:16:00;100303.27;;;15.82;90.50
38806;BME280;25635;51.146;17.162;2022-10-16T08:18:27;100307.45;;;15.89;90.46
38806;BME280;25635;51.146;17.162;2022-10-16T08:20:58;100318.72;;;15.96;90.42
38806;BME280;25635;51.146;17.162;2022-10-16T08:23:27;100316.77;;;16.03;90.26
38806;BME280;25635;51.146;17.162;2022-10-16T08:25:54;100326.22;;;16.10;89.97
38806;BME280;25635;51.146;17.162;2022-10-16T08:28:21;100323.38;;;16.17;89.97
38806;BME280;25635;51.146;17.162;2022-10-16T08:30:48;100328.00;;;16.24;89.91
38806;BME280;25635;51.146;17.162;2022-10-16T08:33:14;100322.59;;;16.29;89.82
38806;BME280;25635;51.146;17.162;2022-10-16T08:35:40;100332.42;;;16.38;89.64
38806;BME280;25635;51.146;17.162;2022-10-16T08:38:07;100323.40;;;16.46;89.31
38806;BME280;25635;51.146;17.162;2022-10-16T08:40:36;100324.53;;;16.52;88.82
38806;BME280;25635;51.146;17.162;2022-10-16T08:48:50;100335.50;;;16.68;88.26
38806;BME280;25635;51.146;17.162;2022-10-16T08:53:59;100342.19;;;16.79;87.61
38806;BME280;25635;51.146;17.162;2022-10-16T08:56:28;100342.92;;;16.85;87.47
38806;BME280;25635;51.146;17.162;2022-10-16T08:58:57;100352.37;;;16.92;87.80
38806;BME280;25635;51.146;17.162;2022-10-16T09:01:37;100349.53;;;16.98;87.64
38806;BME280;25635;51.146;17.162;2022-10-16T09:10:21;100359.05;;;17.17;86.89
38806;BME280;25635;51.146;17.162;2022-10-16T09:13:14;100358.77;;;17.26;87.28
38806;BME280;25635;51.146;17.162;2022-10-16T09:18:58;100363.88;;;17.44;86.16
38806;BME280;25635;51.146;17.162;2022-10-16T09:21:30;100366.19;;;17.55;86.44
38806;BME280;25635;51.146;17.162;2022-10-16T09:24:20;100369.48;;;17.61;85.93
38806;BME280;25635;51.146;17.162;2022-10-16T09:26:48;100370.59;;;17.68;85.54
38806;BME280;25635;51.146;17.162;2022-10-16T09:29:15;100372.95;;;17.75;85.74
38806;BME280;25635;51.146;17.162;2022-10-16T09:31:45;100366.13;;;17.81;85.12
38806;BME280;25635;51.146;17.162;2022-10-16T09:34:32;100363.20;;;17.91;85.17
38806;BME280;25635;51.146;17.162;2022-10-16T09:37:08;100364.14;;;18.01;84.90
38806;BME280;25635;51.146;17.162;2022-10-16T09:39:47;100369.55;;;18.10;84.13
38806;BME280;25635;51.146;17.162;2022-10-16T09:42:31;100371.97;;;18.16;84.24
38806;BME280;25635;51.146;17.162;2022-10-16T09:44:57;100371.28;;;18.23;84.28
38806;BME280;25635;51.146;17.162;2022-10-16T09:47:26;100376.77;;;18.30;84.04
38806;BME280;25635;51.146;17.162;2022-10-16T09:49:58;100371.17;;;18.38;83.58
38806;BME280;25635;51.146;17.162;2022-10-16T09:52:29;100366.16;;;18.42;83.28
38806;BME280;25635;51.146;17.162;2022-10-16T09:54:58;100366.69;;;18.52;84.11
38806;BME280;25635;51.146;17.162;2022-10-16T09:57:27;100361.45;;;18.62;83.32
38806;BME280;25635;51.146;17.162;2022-10-16T09:59:59;100364.58;;;18.72;83.33
38806;BME280;25635;51.146;17.162;2022-10-16T10:02:37;100364.31;;;18.79;82.91
38806;BME280;25635;51.146;17.162;2022-10-16T10:05:05;100363.61;;;18.86;83.04
38806;BME280;25635;51.146;17.162;2022-10-16T10:07:38;100365.96;;;18.94;83.07
38806;BME280;25635;51.146;17.162;2022-10-16T10:10:30;100360.42;;;19.00;82.94
38806;BME280;25635;51.146;17.162;2022-10-16T10:12:54;100358.66;;;19.11;82.95
38806;BME280;25635;51.146;17.162;2022-10-16T10:15:22;100350.01;;;19.28;82.99
38806;BME280;25635;51.146;17.162;2022-10-16T10:17:52;100361.23;;;19.44;82.22
38806;BME280;25635;51.146;17.162;2022-10-16T10:20:28;100358.74;;;19.62;83.32
38806;BME280;25635;51.146;17.162;2022-10-16T10:22:58;100356.51;;;19.83;82.45
38806;BME280;25635;51.146;17.162;2022-10-16T10:31:19;100365.64;;;20.36;79.92
38806;BME280;25635;51.146;17.162;2022-10-16T10:34:18;100370.20;;;20.43;79.07
38806;BME280;25635;51.146;17.162;2022-10-16T10:36:59;100366.78;;;20.50;78.60
38806;BME280;25635;51.146;17.162;2022-10-16T10:39:46;100366.19;;;20.53;78.15
38806;BME280;25635;51.146;17.162;2022-10-16T10:42:23;100366.50;;;20.56;77.98
38806;BME280;25635;51.146;17.162;2022-10-16T10:49:04;100364.61;;;20.59;77.91
38806;BME280;25635;51.146;17.162;2022-10-16T10:51:19;100364.23;;;20.58;77.08
38806;BME280;25635;51.146;17.162;2022-10-16T10:54:04;100355.44;;;20.56;77.27
38806;BME280;25635;51.146;17.162;2022-10-16T10:59:53;100362.36;;;20.50;76.37
38806;BME280;25635;51.146;17.162;2022-10-16T11:02:44;100356.80;;;20.46;76.99
38806;BME280;25635;51.146;17.162;2022-10-16T11:05:31;100357.27;;;20.45;76.65
38806;BME280;25635;51.146;17.162;2022-10-16T11:11:14;100365.93;;;20.49;77.13
38806;BME280;25635;51.146;17.162;2022-10-16T11:16:45;100352.30;;;20.67;76.91
38806;BME280;25635;51.146;17.162;2022-10-16T11:22:24;100346.35;;;20.90;73.01
38806;BME280;25635;51.146;17.162;2022-10-16T11:27:57;100336.16;;;21.17;75.10
38806;BME280;25635;51.146;17.162;2022-10-16T11:33:41;100334.55;;;21.49;74.17
38806;BME280;25635;51.146;17.162;2022-10-16T11:39:20;100334.91;;;21.85;74.06
38806;BME280;25635;51.146;17.162;2022-10-16T11:41:53;100327.45;;;22.00;72.91
38806;BME280;25635;51.146;17.162;2022-10-16T11:45:08;100334.61;;;22.16;71.55
38806;BME280;25635;51.146;17.162;2022-10-16T11:47:41;100346.27;;;22.22;71.00
38806;BME280;25635;51.146;17.162;2022-10-16T11:53:37;100342.56;;;22.33;67.72
38806;BME280;25635;51.146;17.162;2022-10-16T11:56:03;100340.98;;;22.38;69.65
38806;BME280;25635;51.146;17.162;2022-10-16T11:58:41;100330.66;;;22.40;69.06
38806;BME280;25635;51.146;17.162;2022-10-16T12:01:37;100329.91;;;22.45;69.49
38806;BME280;25635;51.146;17.162;2022-10-16T12:07:10;100340.75;;;22.42;66.63
38806;BME280;25635;51.146;17.162;2022-10-16T12:09:41;100352.89;;;22.39;68.86
38806;BME280;25635;51.146;17.162;2022-10-16T12:12:48;100362.00;;;22.35;68.17
38806;BME280;25635;51.146;17.162;2022-10-16T12:17:55;100352.59;;;22.37;69.23
38806;BME280;25635;51.146;17.162;2022-10-16T12:20:33;100349.75;;;22.40;69.23
38806;BME280;25635;51.146;17.162;2022-10-16T12:23:04;100363.77;;;22.43;68.98
38806;BME280;25635;51.146;17.162;2022-10-16T12:25:35;100372.24;;;22.43;68.62
38806;BME280;25635;51.146;17.162;2022-10-16T12:28:19;100374.98;;;22.41;68.74
38806;BME280;25635;51.146;17.162;2022-10-16T12:31:02;100383.72;;;22.36;68.12
38806;BME280;25635;51.146;17.162;2022-10-16T12:33:36;100388.52;;;22.30;68.28
38806;BME280;25635;51.146;17.162;2022-10-16T12:36:15;100391.41;;;22.25;68.50
38806;BME280;25635;51.146;17.162;2022-10-16T12:38:46;100389.37;;;22.21;68.37
38806;BME280;25635;51.146;17.162;2022-10-16T12:41:26;100385.91;;;22.11;68.05
38806;BME280;25635;51.146;17.162;2022-10-16T12:43:58;100391.73;;;22.01;68.18
38806;BME280;25635;51.146;17.162;2022-10-16T12:51:45;100397.47;;;21.76;68.28
38806;BME280;25635;51.146;17.162;2022-10-16T12:54:35;100403.41;;;21.73;68.66
38806;BME280;25635;51.146;17.162;2022-10-16T12:57:36;100404.06;;;21.69;68.57
38806;BME280;25635;51.146;17.162;2022-10-16T13:00:25;100408.20;;;21.66;68.77
38806;BME280;25635;51.146;17.162;2022-10-16T13:03:29;100405.95;;;21.67;68.95
38806;BME280;25635;51.146;17.162;2022-10-16T13:09:19;100413.11;;;21.56;68.92
38806;BME280;25635;51.146;17.162;2022-10-16T13:17:40;100419.69;;;21.49;69.14
38806;BME280;25635;51.146;17.162;2022-10-16T13:20:27;100413.20;;;21.46;69.39
38806;BME280;25635;51.146;17.162;2022-10-16T13:23:24;100415.88;;;21.46;69.32
38806;BME280;25635;51.146;17.162;2022-10-16T13:28:51;100417.65;;;21.54;69.79
38806;BME280;25635;51.146;17.162;2022-10-16T13:31:20;100418.53;;;21.55;69.62
38806;BME280;25635;51.146;17.162;2022-10-16T13:33:51;100425.25;;;21.53;69.53
38806;BME280;25635;51.146;17.162;2022-10-16T13:36:23;100433.00;;;21.49;69.38
38806;BME280;25635;51.146;17.162;2022-10-16T13:41:43;100427.91;;;21.44;69.49
38806;BME280;25635;51.146;17.162;2022-10-16T13:44:18;100427.91;;;21.44;69.42
38806;BME280;25635;51.146;17.162;2022-10-16T13:46:45;100432.38;;;21.44;69.51
38806;BME280;25635;51.146;17.162;2022-10-16T13:49:14;100430.67;;;21.41;69.07
38806;BME280;25635;51.146;17.162;2022-10-16T13:51:58;100432.00;;;21.41;69.26
38806;BME280;25635;51.146;17.162;2022-10-16T13:54:23;100433.43;;;21.40;69.55
38806;BME280;25635;51.146;17.162;2022-10-16T13:56:50;100429.30;;;21.43;69.54
38806;BME280;25635;51.146;17.162;2022-10-16T13:59:27;100431.97;;;21.43;69.15
38806;BME280;25635;51.146;17.162;2022-10-16T14:02:05;100433.25;;;21.34;69.06
38806;BME280;25635;51.146;17.162;2022-10-16T14:04:33;100435.12;;;21.32;69.14
38806;BME280;25635;51.146;17.162;2022-10-16T14:06:59;100440.52;;;21.31;69.23
38806;BME280;25635;51.146;17.162;2022-10-16T14:09:27;100445.75;;;21.23;69.26
38806;BME280;25635;51.146;17.162;2022-10-16T14:12:07;100448.54;;;21.20;69.37
38806;BME280;25635;51.146;17.162;2022-10-16T14:14:44;100456.02;;;21.12;69.35
38806;BME280;25635;51.146;17.162;2022-10-16T14:17:31;100455.77;;;21.08;69.20
38806;BME280;25635;51.146;17.162;2022-10-16T14:19:58;100462.17;;;21.04;69.44
38806;BME280;25635;51.146;17.162;2022-10-16T14:22:31;100456.47;;;21.03;69.31
38806;BME280;25635;51.146;17.162;2022-10-16T14:25:00;100458.02;;;20.98;68.61
38806;BME280;25635;51.146;17.162;2022-10-16T14:27:35;100467.87;;;20.96;69.69
38806;BME280;25635;51.146;17.162;2022-10-16T14:30:15;100462.67;;;20.93;69.75
38806;BME280;25635;51.146;17.162;2022-10-16T14:33:01;100465.55;;;20.89;69.65
38806;BME280;25635;51.146;17.162;2022-10-16T14:35:37;100462.64;;;20.84;70.02